createdAt,value
2022-11-26T00:00:15.638Z,3.70
2022-11-26T00:02:43.842Z,3.70
2022-11-26T00:05:13.399Z,3.70
2022-11-26T00:07:41.918Z,3.70
2022-11-26T00:10:15.267Z,3.70
2022-11-26T00:12:43.472Z,3.70
2022-11-26T00:15:16.404Z,3.60
2022-11-26T00:17:44.502Z,3.60
2022-11-26T00:20:12.592Z,3.60
2022-11-26T00:22:42.399Z,3.60
2022-11-26T00:25:18.082Z,3.60
2022-11-26T00:27:46.173Z,3.60
2022-11-26T00:30:20.718Z,3.60
2022-11-26T00:32:48.902Z,3.60
2022-11-26T00:35:17.119Z,3.60
2022-11-26T00:37:47.394Z,3.60
2022-11-26T00:40:20.652Z,3.70
2022-11-26T00:42:48.720Z,3.70
2022-11-26T00:45:19.647Z,3.70
2022-11-26T00:47:47.714Z,3.80
2022-11-26T00:50:17.062Z,3.80
2022-11-26T00:52:45.215Z,3.80
2022-11-26T00:55:20.650Z,3.80
2022-11-26T00:57:48.706Z,3.80
2022-11-26T01:00:20.211Z,3.80
2022-11-26T01:02:48.369Z,3.80
2022-11-26T01:05:16.762Z,3.80
2022-11-26T01:07:45.291Z,3.80
2022-11-26T01:10:17.743Z,3.80
2022-11-26T01:12:46.017Z,3.70
2022-11-26T01:15:14.373Z,3.70
2022-11-26T01:17:43.861Z,3.70
2022-11-26T01:20:25.309Z,3.60
2022-11-26T01:22:54.111Z,3.60
2022-11-26T01:25:23.007Z,3.60
2022-11-26T01:27:51.081Z,3.60
2022-11-26T01:30:21.563Z,3.60
2022-11-26T01:32:51.057Z,3.60
2022-11-26T01:35:19.638Z,3.60
2022-11-26T01:37:47.987Z,3.60
2022-11-26T01:40:32.974Z,3.50
2022-11-26T01:43:02.051Z,3.50
2022-11-26T01:45:30.118Z,3.40
2022-11-26T01:47:59.673Z,3.40
2022-11-26T01:50:52.958Z,3.30
2022-11-26T01:53:27.408Z,3.30
2022-11-26T01:55:57.003Z,3.20
2022-11-26T01:58:27.507Z,3.10
2022-11-26T02:00:55.619Z,3.10
2022-11-26T02:03:25.276Z,3.10
2022-11-26T02:05:56.536Z,3.10
2022-11-26T02:08:25.700Z,3.00
2022-11-26T02:10:53.919Z,3.00
2022-11-26T02:13:22.066Z,3.00
2022-11-26T02:15:54.166Z,3.00
2022-11-26T02:18:22.260Z,3.00
2022-11-26T02:20:53.892Z,3.00
2022-11-26T02:24:05.328Z,2.90
2022-11-26T02:27:17.901Z,2.90
2022-11-26T02:30:02.027Z,2.90
2022-11-26T02:35:01.186Z,2.90
2022-11-26T02:37:30.730Z,2.80
2022-11-26T02:39:58.930Z,2.80
2022-11-26T02:42:28.533Z,2.80
2022-11-26T02:44:59.028Z,2.70
2022-11-26T02:47:27.994Z,2.70
2022-11-26T02:49:56.097Z,2.70
2022-11-26T02:52:24.381Z,2.70
2022-11-26T02:54:52.469Z,2.70
2022-11-26T02:57:21.366Z,2.70
2022-11-26T02:59:49.398Z,2.60
2022-11-26T03:02:21.490Z,2.60
2022-11-26T03:04:51.346Z,2.50
2022-11-26T03:07:19.548Z,2.50
2022-11-26T03:09:51.605Z,2.40
2022-11-26T03:12:19.879Z,2.40
2022-11-26T03:14:47.904Z,2.40
2022-11-26T03:17:16.010Z,2.30
2022-11-26T03:19:45.461Z,2.30
2022-11-26T03:22:13.542Z,2.30
2022-11-26T03:24:41.629Z,2.20
2022-11-26T03:27:09.655Z,2.20
2022-11-26T03:29:37.811Z,2.20
2022-11-26T03:32:06.286Z,2.10
2022-11-26T03:34:34.561Z,2.10
2022-11-26T03:37:04.090Z,2.10
2022-11-26T03:39:32.164Z,2.10
2022-11-26T03:42:00.197Z,2.10
2022-11-26T03:44:28.311Z,2.10
2022-11-26T03:46:56.369Z,2.10
2022-11-26T03:49:24.666Z,2.00
2022-11-26T03:51:52.697Z,2.00
2022-11-26T03:54:22.106Z,2.00
2022-11-26T03:56:50.158Z,2.00
2022-11-26T03:59:18.303Z,1.90
2022-11-26T04:01:46.398Z,1.90
2022-11-26T04:04:14.543Z,1.90
2022-11-26T04:06:42.706Z,1.80
2022-11-26T04:09:10.825Z,1.80
2022-11-26T04:11:40.276Z,1.80
2022-11-26T04:14:08.326Z,1.80
2022-11-26T04:16:36.416Z,1.70
2022-11-26T04:19:04.586Z,1.70
2022-11-26T04:21:32.614Z,1.70
2022-11-26T04:24:00.658Z,1.60
2022-11-26T04:26:28.755Z,1.60
2022-11-26T04:28:58.250Z,1.60
2022-11-26T04:31:26.360Z,1.60
2022-11-26T04:33:54.532Z,1.50
2022-11-26T04:36:22.547Z,1.50
2022-11-26T04:38:50.666Z,1.50
2022-11-26T04:41:18.706Z,1.50
2022-11-26T04:43:46.833Z,1.60
2022-11-26T04:46:16.345Z,1.50
2022-11-26T04:48:44.484Z,1.50
2022-11-26T04:51:12.504Z,1.50
2022-11-26T04:53:40.574Z,1.50
2022-11-26T04:56:08.836Z,1.50
2022-11-26T04:58:36.999Z,1.50
2022-11-26T05:01:05.206Z,1.60
2022-11-26T05:03:36.309Z,1.60
2022-11-26T05:06:04.414Z,1.60
2022-11-26T05:08:32.469Z,1.60
2022-11-26T05:11:01.556Z,1.60
2022-11-26T05:13:29.688Z,1.70
2022-11-26T05:15:57.769Z,1.70
2022-11-26T05:18:26.551Z,1.80
2022-11-26T05:20:56.007Z,1.80
2022-11-26T05:23:24.176Z,1.80
2022-11-26T05:25:52.195Z,1.90
2022-11-26T05:28:20.252Z,1.90
2022-11-26T05:30:48.319Z,2.00
2022-11-26T05:33:16.484Z,2.00
2022-11-26T05:35:44.512Z,2.00
2022-11-26T05:38:13.946Z,2.10
2022-11-26T05:40:41.991Z,2.10
2022-11-26T05:43:10.121Z,2.10
2022-11-26T05:45:38.225Z,2.20
2022-11-26T05:48:06.895Z,2.20
2022-11-26T05:50:34.941Z,2.20
2022-11-26T05:53:02.980Z,2.20
2022-11-26T05:55:32.418Z,2.20
2022-11-26T05:58:00.557Z,2.20
2022-11-26T06:00:28.666Z,2.20
2022-11-26T06:02:56.828Z,2.20
2022-11-26T06:05:24.962Z,2.30
2022-11-26T06:07:53.163Z,2.20
2022-11-26T06:10:21.332Z,2.30
2022-11-26T06:12:50.792Z,2.30
2022-11-26T06:15:18.872Z,2.30
2022-11-26T06:17:46.936Z,2.30
2022-11-26T06:20:15.293Z,2.40
2022-11-26T06:22:44.305Z,2.40
2022-11-26T06:25:13.310Z,2.40
2022-11-26T06:27:41.435Z,2.50
2022-11-26T06:30:15.226Z,2.50
2022-11-26T06:32:43.366Z,2.50
2022-11-26T06:35:11.459Z,2.50
2022-11-26T06:37:39.521Z,2.60
2022-11-26T06:40:09.324Z,2.60
2022-11-26T06:42:37.439Z,2.60
2022-11-26T06:45:06.183Z,2.60
2022-11-26T06:47:35.729Z,2.70
2022-11-26T06:50:09.258Z,2.70
2022-11-26T06:52:38.829Z,2.70
2022-11-26T06:55:07.429Z,2.80
2022-11-26T06:57:35.617Z,2.80
2022-11-26T07:00:03.689Z,2.90
2022-11-26T07:02:31.941Z,2.90
2022-11-26T07:05:01.427Z,3.00
2022-11-26T07:07:29.549Z,3.00
2022-11-26T07:09:57.680Z,3.00
2022-11-26T07:12:25.826Z,3.00
2022-11-26T07:14:53.866Z,3.10
2022-11-26T07:17:22.052Z,3.10
2022-11-26T07:19:50.816Z,3.10
2022-11-26T07:22:20.335Z,3.20
2022-11-26T07:24:48.400Z,3.20
2022-11-26T07:27:16.510Z,3.20
2022-11-26T07:29:44.598Z,3.20
2022-11-26T07:32:12.645Z,3.20
2022-11-26T07:34:40.994Z,3.20
2022-11-26T07:37:09.149Z,3.30
2022-11-26T07:39:38.984Z,3.30
2022-11-26T07:42:07.142Z,3.30
2022-11-26T07:44:35.331Z,3.30
2022-11-26T07:47:04.457Z,3.30
2022-11-26T07:49:32.540Z,3.40
2022-11-26T07:52:00.644Z,3.40
2022-11-26T07:54:28.759Z,3.40
2022-11-26T07:56:58.173Z,3.40
2022-11-26T07:59:26.347Z,3.40
2022-11-26T08:01:54.463Z,3.50
2022-11-26T08:04:22.632Z,3.50
2022-11-26T08:06:50.704Z,3.50
2022-11-26T08:09:18.762Z,3.50
2022-11-26T08:11:47.185Z,3.50
2022-11-26T08:14:16.624Z,3.60
2022-11-26T08:16:44.822Z,3.60
2022-11-26T08:19:13.766Z,3.60
2022-11-26T08:21:41.925Z,3.60
2022-11-26T08:24:11.671Z,3.70
2022-11-26T08:26:43.918Z,3.70
2022-11-26T08:29:12.845Z,3.70
2022-11-26T08:31:45.511Z,3.70
2022-11-26T08:34:15.302Z,3.80
2022-11-26T08:36:43.437Z,3.80
2022-11-26T08:39:13.135Z,3.80
2022-11-26T08:41:41.233Z,3.80
2022-11-26T08:44:09.397Z,3.80
2022-11-26T08:46:37.967Z,3.90
2022-11-26T08:49:07.876Z,3.90
2022-11-26T08:51:35.941Z,3.90
2022-11-26T08:54:04.057Z,3.90
2022-11-26T08:56:32.274Z,4.00
2022-11-26T08:59:00.358Z,4.00
2022-11-26T09:01:29.476Z,4.00
2022-11-26T09:03:59.260Z,4.00
2022-11-26T09:06:30.130Z,4.00
2022-11-26T09:09:17.794Z,4.10
2022-11-26T09:11:48.031Z,4.10
2022-11-26T09:14:16.535Z,4.10
2022-11-26T09:16:44.677Z,4.20
2022-11-26T09:19:13.477Z,4.20
2022-11-26T09:21:43.023Z,4.20
2022-11-26T09:24:11.102Z,4.20
2022-11-26T09:26:39.158Z,4.20
2022-11-26T09:29:07.683Z,4.30
2022-11-26T09:31:35.772Z,4.30
2022-11-26T09:34:03.893Z,4.30
2022-11-26T09:36:32.341Z,4.40
2022-11-26T09:39:01.829Z,4.40
2022-11-26T09:41:39.891Z,4.50
2022-11-26T09:44:29.717Z,4.50
2022-11-26T09:47:14.180Z,4.60
2022-11-26T09:49:47.399Z,4.60
2022-11-26T09:52:15.610Z,4.60
2022-11-26T09:54:45.069Z,4.60
2022-11-26T09:57:19.640Z,4.60
2022-11-26T09:59:47.777Z,4.60
2022-11-26T10:02:15.964Z,4.70
2022-11-26T10:04:44.056Z,4.70
2022-11-26T10:07:22.214Z,4.70
2022-11-26T10:09:56.758Z,4.70
2022-11-26T10:12:32.975Z,4.70
2022-11-26T10:15:04.741Z,4.70
2022-11-26T10:17:41.151Z,4.80
2022-11-26T10:20:42.091Z,4.80
2022-11-26T10:23:16.895Z,4.80
2022-11-26T10:25:47.775Z,4.80
2022-11-26T10:28:20.506Z,4.90
2022-11-26T10:30:51.621Z,4.80
2022-11-26T10:33:19.805Z,4.90
2022-11-26T10:35:47.841Z,4.80
2022-11-26T10:38:16.026Z,4.90
2022-11-26T10:40:44.146Z,4.90
2022-11-26T10:43:18.558Z,4.90
2022-11-26T10:45:47.943Z,4.90
2022-11-26T10:48:17.936Z,4.90
2022-11-26T10:50:55.395Z,4.90
2022-11-26T10:53:23.951Z,5.00
2022-11-26T10:55:52.663Z,5.00
2022-11-26T10:58:23.119Z,5.00
2022-11-26T11:00:56.372Z,5.00
2022-11-26T11:03:38.526Z,5.00
2022-11-26T11:06:42.562Z,5.10
2022-11-26T11:09:24.963Z,5.10
2022-11-26T11:12:15.358Z,5.10
2022-11-26T11:14:45.871Z,5.10
2022-11-26T11:17:34.547Z,5.10
2022-11-26T11:20:06.059Z,5.10
2022-11-26T11:22:34.219Z,5.10
2022-11-26T11:25:02.362Z,5.20
2022-11-26T11:27:41.023Z,5.10
2022-11-26T11:30:24.960Z,5.20
2022-11-26T11:32:55.717Z,5.20
2022-11-26T11:35:24.794Z,5.20
2022-11-26T11:37:53.621Z,5.20
2022-11-26T11:40:25.539Z,5.20
2022-11-26T11:42:56.017Z,5.20
2022-11-26T11:45:29.761Z,5.20
2022-11-26T11:47:58.921Z,5.20
2022-11-26T11:50:31.507Z,5.20
2022-11-26T11:53:15.322Z,5.20
2022-11-26T11:55:54.226Z,5.20
2022-11-26T11:58:39.538Z,5.20
2022-11-26T12:01:12.710Z,5.20
2022-11-26T12:03:56.678Z,5.20
2022-11-26T12:06:29.590Z,5.20
2022-11-26T12:09:03.716Z,5.20
2022-11-26T12:11:37.020Z,5.20
2022-11-26T12:14:07.912Z,5.20
2022-11-26T12:16:39.321Z,5.20
2022-11-26T12:19:12.269Z,5.20
2022-11-26T12:21:41.744Z,5.30
2022-11-26T12:24:12.728Z,5.30
2022-11-26T12:26:41.730Z,5.30
2022-11-26T12:29:13.029Z,5.30
2022-11-26T12:31:44.818Z,5.30
2022-11-26T12:34:23.381Z,5.30
2022-11-26T12:36:54.117Z,5.30
2022-11-26T12:39:30.503Z,5.30
2022-11-26T12:42:00.117Z,5.30
2022-11-26T12:44:30.398Z,5.40
2022-11-26T12:47:03.001Z,5.40
2022-11-26T12:49:35.717Z,5.50
2022-11-26T12:52:08.157Z,5.50
2022-11-26T12:54:40.538Z,5.50
2022-11-26T12:57:11.437Z,5.60
2022-11-26T12:59:41.948Z,5.60
2022-11-26T13:02:24.964Z,5.60
2022-11-26T13:04:53.512Z,5.60
2022-11-26T13:07:30.109Z,5.60
2022-11-26T13:10:04.221Z,5.60
2022-11-26T13:12:38.556Z,5.70
2022-11-26T13:15:11.728Z,5.60
2022-11-26T13:17:43.097Z,5.70
2022-11-26T13:20:17.428Z,5.70
2022-11-26T13:22:58.820Z,5.70
2022-11-26T13:26:02.802Z,5.70
2022-11-26T13:28:50.777Z,5.70
2022-11-26T13:31:28.307Z,5.70
2022-11-26T13:34:14.906Z,5.70
2022-11-26T13:37:05.581Z,5.70
2022-11-26T13:40:05.698Z,5.60
2022-11-26T13:42:51.317Z,5.70
2022-11-26T13:45:45.622Z,5.70
2022-11-26T13:48:15.501Z,5.70
2022-11-26T13:50:46.105Z,5.70
2022-11-26T13:53:16.955Z,5.70
2022-11-26T13:55:46.663Z,5.70
2022-11-26T13:58:17.214Z,5.70
2022-11-26T14:00:45.293Z,5.70
2022-11-26T14:03:46.915Z,5.70
2022-11-26T14:06:14.970Z,5.70
2022-11-26T14:08:45.072Z,5.70
2022-11-26T14:11:17.145Z,5.70
2022-11-26T14:13:47.850Z,5.70
2022-11-26T14:16:16.001Z,5.70
2022-11-26T14:19:03.535Z,5.70
2022-11-26T14:21:31.742Z,5.60
2022-11-26T14:24:02.137Z,5.60
2022-11-26T14:26:37.445Z,5.60
2022-11-26T14:29:13.115Z,5.60
2022-11-26T14:31:42.849Z,5.60
2022-11-26T14:34:15.145Z,5.60
2022-11-26T14:36:52.867Z,5.60
2022-11-26T14:39:20.943Z,5.70
2022-11-26T14:41:59.088Z,5.60
2022-11-26T14:44:32.218Z,5.70
2022-11-26T14:47:00.821Z,5.70
2022-11-26T14:49:38.781Z,5.70
2022-11-26T14:52:15.989Z,5.70
2022-11-26T14:54:45.808Z,5.70
2022-11-26T14:57:14.919Z,5.70
2022-11-26T14:59:56.445Z,5.70
2022-11-26T15:02:25.469Z,5.70
2022-11-26T15:05:00.766Z,5.70
2022-11-26T15:07:29.331Z,5.70
2022-11-26T15:10:04.342Z,5.70
2022-11-26T15:12:32.488Z,5.70
2022-11-26T15:15:00.553Z,5.70
2022-11-26T15:17:29.561Z,5.70
2022-11-26T15:19:59.683Z,5.70
2022-11-26T15:22:31.461Z,5.70
2022-11-26T15:24:59.515Z,5.70
2022-11-26T15:27:32.159Z,5.70
2022-11-26T15:30:00.247Z,5.70
2022-11-26T15:32:29.289Z,5.70
2022-11-26T15:35:00.107Z,5.70
2022-11-26T15:37:28.318Z,5.70
2022-11-26T15:40:10.854Z,5.70
2022-11-26T15:42:39.772Z,5.60
2022-11-26T15:45:14.787Z,5.70
2022-11-26T15:47:46.408Z,5.70
2022-11-26T15:50:23.555Z,5.70
2022-11-26T15:52:51.763Z,5.70
2022-11-26T15:55:22.303Z,5.70
2022-11-26T15:57:51.132Z,5.70
2022-11-26T16:00:23.173Z,5.70
2022-11-26T16:02:52.309Z,5.70
2022-11-26T16:05:28.740Z,5.70
2022-11-26T16:07:58.342Z,5.70
2022-11-26T16:10:27.979Z,5.60
2022-11-26T16:13:07.479Z,5.60
2022-11-26T16:15:35.745Z,5.60
2022-11-26T16:18:04.893Z,5.60
2022-11-26T16:20:34.367Z,5.60
2022-11-26T16:23:02.518Z,5.60
2022-11-26T16:25:31.734Z,5.60
2022-11-26T16:28:07.232Z,5.50
2022-11-26T16:30:36.221Z,5.50
2022-11-26T16:33:04.403Z,5.40
2022-11-26T16:35:49.398Z,5.40
2022-11-26T16:38:20.242Z,5.30
2022-11-26T16:40:48.300Z,5.30
2022-11-26T16:43:16.612Z,5.30
2022-11-26T16:45:44.970Z,5.30
2022-11-26T16:48:20.529Z,5.30
2022-11-26T16:50:49.961Z,5.20
2022-11-26T16:53:18.207Z,5.20
2022-11-26T16:55:46.394Z,5.20
2022-11-26T16:58:18.263Z,5.20
2022-11-26T17:00:46.302Z,5.20
2022-11-26T17:03:14.851Z,5.10
2022-11-26T17:05:43.229Z,5.10
2022-11-26T17:08:12.982Z,5.10
2022-11-26T17:10:41.080Z,5.10
2022-11-26T17:13:09.308Z,5.10
2022-11-26T17:15:37.415Z,5.10
2022-11-26T17:18:06.448Z,5.00
2022-11-26T17:20:34.818Z,5.00
2022-11-26T17:23:03.066Z,5.00
2022-11-26T17:25:32.693Z,4.90
2022-11-26T17:28:00.797Z,4.90
2022-11-26T17:30:29.015Z,4.90
2022-11-26T17:32:57.595Z,4.90
2022-11-26T17:35:26.026Z,4.80
2022-11-26T17:37:54.216Z,4.80
2022-11-26T17:40:23.534Z,4.80
2022-11-26T17:42:53.042Z,4.80
2022-11-26T17:45:21.246Z,4.80
2022-11-26T17:47:49.419Z,4.80
2022-11-26T17:50:19.762Z,4.80
2022-11-26T17:52:48.713Z,4.80
2022-11-26T17:55:16.957Z,4.70
2022-11-26T17:57:45.124Z,4.80
2022-11-26T18:00:16.567Z,4.80
2022-11-26T18:02:46.276Z,4.80
2022-11-26T18:05:14.652Z,4.80
2022-11-26T18:07:42.884Z,4.70
2022-11-26T18:10:12.672Z,4.80
2022-11-26T18:12:40.892Z,4.80
2022-11-26T18:15:09.664Z,4.70
2022-11-26T18:17:39.135Z,4.70
2022-11-26T18:20:10.134Z,4.70
2022-11-26T18:22:38.235Z,4.70
2022-11-26T18:25:06.794Z,4.70
2022-11-26T18:27:34.936Z,4.70
2022-11-26T18:30:03.679Z,4.70
2022-11-26T18:32:31.877Z,4.60
2022-11-26T18:35:01.810Z,4.60
2022-11-26T18:37:30.171Z,4.60
2022-11-26T18:39:58.307Z,4.60
2022-11-26T18:42:41.798Z,4.60
2022-11-26T18:45:11.879Z,4.60
2022-11-26T18:47:40.108Z,4.60
2022-11-26T18:50:10.472Z,4.50
2022-11-26T18:52:38.967Z,4.60
2022-11-26T18:55:08.738Z,4.60
2022-11-26T18:57:36.983Z,4.60
2022-11-26T19:00:06.188Z,4.50
2022-11-26T19:02:35.105Z,4.50
2022-11-26T19:05:03.644Z,4.60
2022-11-26T19:07:33.614Z,4.50
2022-11-26T19:10:01.886Z,4.50
2022-11-26T19:12:30.102Z,4.50
2022-11-26T19:14:58.297Z,4.50
2022-11-26T19:17:26.466Z,4.50
2022-11-26T19:19:54.590Z,4.50
2022-11-26T19:22:22.933Z,4.50
2022-11-26T19:24:52.498Z,4.50
2022-11-26T19:27:20.819Z,4.50
2022-11-26T19:29:49.002Z,4.50
2022-11-26T19:32:17.245Z,4.50
2022-11-26T19:34:45.450Z,4.50
2022-11-26T19:37:13.608Z,4.50
2022-11-26T19:39:42.014Z,4.50
2022-11-26T19:42:11.842Z,4.50
2022-11-26T19:44:40.095Z,4.50
2022-11-26T19:47:08.596Z,4.50
2022-11-26T19:49:36.848Z,4.50
2022-11-26T19:52:05.338Z,4.50
2022-11-26T19:54:33.577Z,4.50
2022-11-26T19:57:01.718Z,4.50
2022-11-26T19:59:31.184Z,4.50
2022-11-26T20:01:59.402Z,4.50
2022-11-26T20:04:29.678Z,4.50
2022-11-26T20:06:58.695Z,4.50
2022-11-26T20:09:26.798Z,4.50
2022-11-26T20:11:55.249Z,4.50
2022-11-26T20:14:23.408Z,4.50
2022-11-26T20:16:56.342Z,4.50
2022-11-26T20:19:28.767Z,4.50
2022-11-26T20:21:56.909Z,4.50
2022-11-26T20:24:25.055Z,4.50
2022-11-26T20:26:53.439Z,4.50
2022-11-26T20:29:22.097Z,4.50
2022-11-26T20:31:52.417Z,4.50
2022-11-26T20:34:21.692Z,4.50
2022-11-26T20:36:49.993Z,4.50
2022-11-26T20:39:19.393Z,4.50
2022-11-26T20:41:47.794Z,4.40
2022-11-26T20:44:15.939Z,4.40
2022-11-26T20:46:44.379Z,4.40
2022-11-26T20:49:15.977Z,4.40
2022-11-26T20:51:44.433Z,4.40
2022-11-26T20:54:12.720Z,4.40
2022-11-26T20:56:40.826Z,4.40
2022-11-26T20:59:09.669Z,4.40
2022-11-26T21:01:40.113Z,4.40
2022-11-26T21:04:08.388Z,4.30
2022-11-26T21:06:38.654Z,4.20
2022-11-26T21:09:07.420Z,4.20
2022-11-26T21:11:35.684Z,4.20
2022-11-26T21:14:04.035Z,4.20
2022-11-26T21:16:32.303Z,4.10
2022-11-26T21:19:00.937Z,4.10
2022-11-26T21:21:29.476Z,4.10
2022-11-26T21:23:59.197Z,4.10
2022-11-26T21:26:27.675Z,4.10
2022-11-26T21:28:56.482Z,4.10
2022-11-26T21:31:24.730Z,4.00
2022-11-26T21:33:55.767Z,4.00
2022-11-26T21:36:23.929Z,4.00
2022-11-26T21:38:52.155Z,4.00
2022-11-26T21:41:21.661Z,4.00
2022-11-26T21:43:49.800Z,4.00
2022-11-26T21:46:19.203Z,4.00
2022-11-26T21:48:47.307Z,4.00
2022-11-26T21:51:16.682Z,4.00
2022-11-26T21:53:44.896Z,4.00
2022-11-26T21:56:15.137Z,4.00
2022-11-26T21:58:44.696Z,4.00
2022-11-26T22:01:13.363Z,3.90
2022-11-26T22:03:42.324Z,4.00
2022-11-26T22:06:10.493Z,4.00
2022-11-26T22:08:38.744Z,4.00
2022-11-26T22:11:10.531Z,3.90
2022-11-26T22:13:38.653Z,3.90
2022-11-26T22:16:08.793Z,3.90
2022-11-26T22:18:37.879Z,3.90
2022-11-26T22:21:06.378Z,3.90
2022-11-26T22:23:34.644Z,3.90
2022-11-26T22:26:02.689Z,3.80
2022-11-26T22:28:30.928Z,3.80
2022-11-26T22:30:59.061Z,3.90
2022-11-26T22:33:28.664Z,3.90
2022-11-26T22:35:57.087Z,3.90
2022-11-26T22:38:25.328Z,3.90
2022-11-26T22:40:53.455Z,3.80
2022-11-26T22:43:21.606Z,3.80
2022-11-26T22:45:49.733Z,3.90
2022-11-26T22:48:17.809Z,3.90
2022-11-26T22:50:52.731Z,3.80
2022-11-26T22:53:20.928Z,3.80
2022-11-26T22:55:52.334Z,3.80
2022-11-26T22:58:20.585Z,3.80
2022-11-26T23:00:50.280Z,3.80
2022-11-26T23:03:18.721Z,3.70
2022-11-26T23:05:47.016Z,3.70
2022-11-26T23:08:16.589Z,3.80
2022-11-26T23:10:44.767Z,3.80
2022-11-26T23:13:13.626Z,3.80
2022-11-26T23:15:44.673Z,3.70
2022-11-26T23:18:13.518Z,3.70
2022-11-26T23:20:41.691Z,3.70
2022-11-26T23:23:09.906Z,3.70
2022-11-26T23:25:40.547Z,3.70
2022-11-26T23:28:08.701Z,3.70
2022-11-26T23:30:36.820Z,3.70
2022-11-26T23:33:04.997Z,3.70
2022-11-26T23:35:33.052Z,3.70
2022-11-26T23:38:01.202Z,3.70
2022-11-26T23:40:29.244Z,3.70
2022-11-26T23:42:58.734Z,3.70
2022-11-26T23:45:26.806Z,3.70
2022-11-26T23:47:54.913Z,3.70
2022-11-26T23:50:22.981Z,3.70
2022-11-26T23:52:51.133Z,3.70
2022-11-26T23:55:19.233Z,3.60
2022-11-26T23:57:47.385Z,3.60
